Harbinger, NC

7:35 AM EST on January 30, 2015 (GMT -0500)
Elizabeth City Cgas-Regional | Change Station
CLOSE
Current Station
Airport
Location: Elizabeth City,
Elevation: 13 ft
Nearby Weather Stations

Elev 13 ft 36.26 °N, 76.18 °W | Updated 41 minutes ago

Rain
Rain
42 °F
Feels Like 37 °F
N
9
Wind Variable Wind from West

Today
High -- | Low -- °F
--% Chance of Precip.
Yesterday
High -- | Low -- °F
Precip. -- in
7:05 AM 5:27 PM
Waxing Gibbous, 82% visible
Pressure 29.95 in
Visibility 8.0 miles
Clouds Overcast 4800 ft
Windchill 37 °F
Dew Point 37 °F
Humidity 82%
Rainfall 0.02 in
Snow Depth Not available.
UV 0 out of 12
Pollen 3.20 out of 12
Air Quality Not available.
Flu Activity Not available.
METAR KECG 301154Z 27008KT 8SM RA OVC048 06/03 A2995 RMK AO2 SLP142 P0002 60002 70002 T00560028 10078 20056 53005

More Conditions Fewer Conditions

Pressure 29.95 in
Visibility 8.0 miles
Clouds Overcast 4800 ft
Windchill 37 °F
Dew Point 37 °F
Humidity 82%
Rainfall 0.02 in
Snow Depth Not available.
UV 0 out of 12
Pollen 3.20 out of 12
Air Quality Not available.
Flu Activity Not available.
METAR KECG 301154Z 27008KT 8SM RA OVC048 06/03 A2995 RMK AO2 SLP142 P0002 60002 70002 T00560028 10078 20056 53005

More Conditions Fewer Conditions

10-Day Weather Forecast

Almanac

Astronomy

Jan. 30, 2015 Rise Set
Actual Time
Civil Twilight
Nautical Twilight
Astronomical Twilight
Moon
Length of Visible Light
Length of Day
Tomorrow will be .
, % of the Moon is Illuminated

Today's Extremes

State Highs State Lows

Community

WunderPhotos

Upload Photos

1,791,739 photos uploaded!

WunderBlogs® & News

Nearby

Air Quality

  Air Quality AQ Index Pollutant
Not available.

Snow Depth

Station Depth Elevation

Earthquake Activity

City Distance Mag. Time & Date
Minimum magnitude displayed is 2.5.

Coastal Water Temperatures

Place Temperature

Nearby Weather Stations